Latest Coastal Weather Observations for Cairns

IDQ60701

Issued at 12:31 am EST Friday 30 January 2015 (issued every 10 minutes, with the page automatically refreshed every 10 minutes)

About coastal observations | Map of coastal stations | Coastal observations for QLD | Marine services | Other Formats
Station Details ID: 031011 Name: CAIRNS AERO Lat: -16.87 Lon: 145.75 Height: 2.22 m
Data from the previous 72 hours. | See also: Recent months at Cairns
Date/Time
EST
Temp

°C
Wind Pressure Rain
since 9am
mm
Weather Cloud Vis
km
Sea
Height
m
Swell
Dir
 
Speed
knots
Gust
knots
hPa Trend Height
m
Period
s
Dir
30/12:30am 25.8 W 4 5 1005.2 - 0.0 - Mostly clear 10 - - - -
30/12:00am 25.2 N 1 3 1005.4 - 0.0 - Mostly clear 10 - - - -
 
Date/Time
EST
Temp

°C
Wind Pressure Rain
since 9am
mm
Weather Cloud Vis
km
Sea
Height
m
Swell
Dir
 
Speed
knots
Gust
knots
hPa Trend Height
m
Period
s
Dir
29/11:30pm 25.4 CALM 0 0 1005.7 - 0.0 - Mostly clear 10 - - - -
29/11:00pm 25.3 CALM 0 0 1005.7 - 0.0 - Mostly clear 10 - - - -
29/10:30pm 26.8 CALM 0 0 1005.5 - 0.0 - Mostly clear 10 - - - -
29/10:00pm 26.7 W 1 3 1005.3 - 0.0 - Mostly clear 10 - - - -
29/09:30pm 27.7 W 3 4 1005.0 - 0.0 - Mostly clear 10 - - - -
29/09:00pm 28.2 NW 4 5 1004.6 - 0.0 - Cloudy 10 - - - -
29/08:30pm 28.8 W 5 7 1004.6 - 0.0 - Mostly clear 10 - - - -
29/08:00pm 28.9 WSW 5 6 1004.3 - 0.0 - Mostly clear 10 - - - -
29/07:30pm 28.9 WSW 5 8 1003.9 - 0.0 - Mostly clear 10 - - - -
29/07:00pm 29.3 N 10 13 1003.4 - 0.0 - Mostly clear 10 - - - -
29/06:30pm 29.5 N 8 12 1003.1 - 0.0 - Mostly clear 10 - - - -
29/06:00pm 30.0 N 7 10 1002.5 - 0.0 - Mostly clear 10 - - - -
29/05:30pm 30.7 N 8 10 1002.2 - 0.0 - Mostly clear 10 - - - -
29/05:00pm 31.6 N 7 10 1001.8 - 0.0 - Mostly clear 10 - - - -
29/04:30pm 31.5 N 7 10 1001.8 - 0.0 - Mostly clear 10 - - - -
29/04:00pm 31.6 NNE 9 13 1001.6 - 0.0 - Mostly clear 10 - - - -
29/03:30pm 32.6 N 9 11 1001.6 - 0.0 - Mostly clear 10 - - - -
29/03:00pm 32.9 N 9 13 1001.6 R 0.0 Fine Partly cloudy 40 - - - -
29/02:30pm 33.3 N 10 14 1001.9 - 0.0 - Mostly clear 10 - - - -
29/02:00pm 33.8 NNE 9 14 1002.0 - 0.0 - - 10 - - - -
29/01:30pm 34.6 NE 10 14 1002.2 - 0.0 - - 10 - - - -
29/01:00pm 34.1 NE 10 16 1002.3 - 0.0 - - 10 - - - -
29/12:30pm 34.1 NE 11 14 1002.4 - 0.0 - - 10 - - - -
29/12:00pm 36.0 NE 8 12 1002.4 - 0.0 - - 10 - - - -
29/11:30am 35.2 N 4 8 1002.7 - 0.0 - - 10 - - - -
29/11:00am 34.8 N 4 6 1002.8 - 0.0 - - 10 - - - -
29/10:30am 34.3 NW 5 9 1002.9 - 0.0 - - 10 - - - -
29/10:00am 33.2 W 5 7 1003.0 - 0.0 - - 10 - - - -
29/09:30am 32.5 WSW 2 6 1003.0 - 0.0 - - 10 - - - -
29/09:00am 31.8 SW 5 7 1002.7 S 0.0 Fine Partly cloudy 30 - - - -
29/08:30am 30.7 SSW 3 5 1002.7 - 0.0 - - 10 - - - -
29/08:00am 29.6 SW 4 6 1002.6 - 0.0 - - 10 - - - -
29/07:30am 27.8 S 1 4 1002.5 - 0.0 - - 10 - - - -
29/07:00am 25.7 S 2 4 1002.3 - 0.0 - - 10 - - - -
29/06:30am 25.0 CALM 0 2 1002.0 - 0.0 - - 10 - - - -
29/06:00am 24.8 W 5 7 1001.5 - 0.0 - - 10 - - - -
29/05:30am 24.1 W 2 4 1001.3 - 0.0 - Mostly clear 10 - - - -
29/05:00am 24.5 SSE 1 3 1001.0 - 0.0 - Mostly clear 10 - - - -
29/04:30am 25.0 S 4 6 1001.0 - 0.0 - Mostly clear 10 - - - -
29/04:00am 24.8 SE 3 5 1001.2 - 0.0 - Mostly clear 10 - - - -
29/03:30am 25.6 ESE 4 5 1001.1 - 0.0 - Mostly clear 10 - - - -
29/03:00am 25.4 S 3 6 1000.9 - 0.0 - Mostly clear 10 - - - -
29/02:30am 24.3 NNW 4 5 1001.1 - 0.0 - Mostly clear 10 - - - -
29/02:00am 25.0 W 1 4 1001.2 - 0.0 - Mostly clear 10 - - - -
29/01:30am 25.1 CALM 0 0 1001.6 - 0.0 - Mostly clear 10 - - - -
29/01:00am 25.3 CALM 0 0 1001.8 - 0.0 - Mostly clear 10 - - - -
29/12:30am 26.2 CALM 0 0 1002.1 - 0.0 - Mostly clear 10 - - - -
29/12:00am 26.2 W 4 4 1002.5 - 0.0 - Mostly clear 10 - - - -
 
Date/Time
EST
Temp

°C
Wind Pressure Rain
since 9am
mm
Weather Cloud Vis
km
Sea
Height
m
Swell
Dir
 
Speed
knots
Gust
knots
hPa Trend Height
m
Period
s
Dir
28/11:30pm 26.3 W 4 5 1003.0 - 0.0 - Mostly clear 10 - - - -
28/11:00pm 26.8 W 4 5 1002.9 - 0.0 - Mostly clear 10 - - - -
28/10:30pm 27.2 W 5 6 1002.9 - 0.0 - Mostly clear 10 - - - -
28/10:00pm 27.5 W 4 5 1002.6 - 0.0 - Mostly clear 10 - - - -
28/09:30pm 27.5 CALM 0 0 1002.4 - 0.0 - Mostly clear 10 - - - -
28/09:00pm 27.9 WNW 1 3 1002.3 - 0.0 - Mostly clear 10 - - - -
28/08:30pm 28.7 WSW 1 3 1002.1 - 0.0 - Mostly clear 10 - - - -
28/08:00pm 29.4 W 4 5 1001.9 - 0.0 - Mostly clear 10 - - - -
28/07:30pm 29.4 NNW 1 5 1001.6 - 0.0 - Mostly clear 10 - - - -
28/07:00pm 30.0 NNW 5 7 1001.1 - 0.0 - Mostly clear 10 - - - -
28/06:30pm 30.5 NNE 6 8 1000.7 - 0.0 - Mostly clear 10 - - - -
28/06:00pm 30.8 N 7 9 1000.2 - 0.0 - Mostly clear 10 - - - -
28/05:30pm 31.1 N 7 10 999.9 - 0.0 - Mostly clear 10 - - - -
28/05:00pm 31.5 N 7 10 999.5 - 0.0 - Mostly clear 10 - - - -
28/04:30pm 31.9 N 8 10 999.2 - 0.0 - Mostly clear 10 - - - -
28/04:00pm 32.3 NE 8 10 999.1 - 0.0 - Mostly clear 10 - - - -
28/03:30pm 32.6 NE 8 12 999.4 - 0.0 - Mostly clear 10 - - - -
28/03:00pm 32.4 NNE 9 14 999.6 R 0.0 Fine Mostly cloudy 40 - - - -
28/02:30pm 32.5 NE 9 14 999.7 - 0.0 - Mostly clear 10 - - - -
28/02:00pm 33.0 NE 9 11 999.7 - 0.0 - Mostly clear 10 - - - -
28/01:30pm 33.6 NNE 8 12 999.8 - 0.0 - Mostly clear 10 - - - -
28/01:00pm 34.1 NNE 12 14 1000.1 - 0.0 - Mostly clear 10 - - - -
28/12:30pm 35.1 ENE 10 11 1000.4 - 0.0 - Mostly clear 10 - - - -
28/12:00pm 34.8 NE 8 9 1000.7 - 0.0 - Mostly clear 10 - - - -
28/11:30am 34.4 N 6 8 1001.1 - 0.0 - Mostly clear 10 - - - -
28/11:00am 34.7 W 5 8 1001.1 - 0.0 - Mostly clear 10 - - - -
28/10:30am 34.6 WSW 4 9 1001.2 - 0.0 - - 10 - - - -
28/10:00am 33.3 W 5 11 1001.2 - 0.0 - Mostly clear 10 - - - -
28/09:30am 32.9 SSW 2 5 1001.4 - 0.0 - Mostly clear 10 - - - -
28/09:00am 32.3 SSW 3 4 1001.6 S 0.0 Fine Partly cloudy 30 - - - -
28/08:30am 31.1 SSW 4 5 1001.8 - 0.0 - - 10 - - - -
28/08:00am 29.9 CALM 0 0 1001.8 - 0.0 - - 10 - - - -
28/07:30am 28.1 ESE 1 4 1001.7 - 0.0 - Partly cloudy 10 - - - -
28/07:00am 26.2 N 2 4 1001.4 - 0.0 - Mostly clear 10 - - - -
28/06:30am 25.9 NNE 1 5 1001.0 - 0.0 - Mostly clear 10 - - - -
28/06:00am 25.8 E 5 6 1000.4 - 0.0 - Mostly clear 10 - - - -
28/05:30am 24.7 CALM 0 0 1000.4 - 0.0 - Mostly clear 10 - - - -
28/05:00am 24.9 ESE 3 4 1000.3 - 0.0 - Mostly clear 10 - - - -
28/04:30am 25.1 SSE 1 5 1000.1 - 0.0 - Mostly clear 10 - - - -
28/04:00am 25.0 SE 4 5 1000.3 - 0.0 - Mostly clear 10 - - - -
28/03:30am 24.9 CALM 0 0 1000.2 - 0.0 - Mostly clear 10 - - - -
28/03:00am 24.7 CALM 0 0 1000.3 - 0.0 - Mostly clear 10 - - - -
28/02:30am 25.1 CALM 0 0 1000.5 - 0.0 - Mostly clear 10 - - - -
28/02:00am 25.1 CALM 0 0 1000.7 - 0.0 - Mostly clear 10 - - - -
28/01:30am 25.5 SE 3 4 1000.8 - 0.0 - Mostly clear 10 - - - -
28/01:00am 25.4 SSE 4 6 1001.1 - 0.0 - Mostly clear 10 - - - -
28/12:30am 25.7 SSE 5 6 1001.6 - 0.0 - Mostly clear 10 - - - -
28/12:00am 25.7 CALM 0 0 1001.8 - 0.0 - Cloudy 10 - - - -
 
Date/Time
EST
Temp

°C
Wind Pressure Rain
since 9am
mm
Weather Cloud Vis
km
Sea
Height
m
Swell
Dir
 
Speed
knots
Gust
knots
hPa Trend Height
m
Period
s
Dir
27/11:30pm 26.2 WSW 1 4 1002.5 - 0.0 - Mostly clear 10 - - - -
27/11:00pm 26.5 CALM 0 0 1002.6 - 0.0 - Mostly clear 10 - - - -
27/10:30pm 26.7 CALM 0 0 1002.9 - 0.0 - Mostly clear 10 - - - -
27/10:00pm 26.9 W 4 5 1002.9 - 0.0 - Mostly clear 10 - - - -
27/09:30pm 26.7 WSW 1 3 1002.8 - 0.0 - Mostly clear 10 - - - -
27/09:00pm 26.9 S 4 6 1002.8 - 0.0 - Mostly clear 10 - - - -
27/08:30pm 27.9 E 1 4 1002.6 - 0.0 - Mostly clear 10 - - - -
27/08:00pm 28.6 WSW 5 8 1002.2 - 0.0 - Mostly clear 10 - - - -
27/07:30pm 28.7 W 6 7 1001.8 - 0.0 - Mostly clear 10 - - - -
27/07:00pm 29.2 WSW 4 6 1001.8 - 0.0 - Mostly clear 10 - - - -
27/06:30pm 29.0 WNW 4 5 1001.7 - 0.0 - Mostly clear 10 - - - -
27/06:00pm 29.4 SW 2 5 1001.5 - 0.0 - Cloudy 10 - - - -
27/05:30pm 29.3 W 7 10 1001.1 - 0.0 - Mostly clear 10 - - - -
27/05:00pm 29.4 W 9 14 1000.7 - 0.0 - Mostly clear 10 - - - -
27/04:52pm 29.5 W 11 14 1000.6 - 0.0 - Partly cloudy 10 - - - -
27/04:30pm 30.0 WNW 8 11 1000.2 - 0.0 - Partly cloudy 10 - - - -
27/04:00pm 30.0 NW 6 9 1000.4 - 0.0 - Mostly clear 10 - - - -
27/03:30pm 30.4 NW 7 9 1000.6 - 0.0 - Mostly clear 10 - - - -
27/03:00pm 31.2 NNW 7 8 1000.8 R 0.0 Distant precip. Mostly cloudy 30 - - - -
27/02:30pm 31.0 N 9 12 1000.6 - 0.0 - Mostly clear 10 - - - -
27/02:00pm 32.1 N 5 7 1001.0 - 0.0 - Mostly clear 10 - - - -
27/01:30pm 31.6 N 6 9 1001.4 - 0.0 - Mostly clear 10 - - - -
27/01:29pm 32.1 NNE 8 11 1001.7 - 0.0 - Mostly clear 10 - - - -
27/01:00pm 32.1 NNE 8 11 1001.7 - 0.0 - Mostly clear 10 - - - -
27/12:30pm 34.3 N 7 9 1001.9 - 0.0 - Mostly clear 10 - - - -
27/12:00pm 33.9 E 4 5 1002.0 - 0.0 - Mostly clear 10 - - - -
27/11:30am 33.0 SSE 3 6 1002.5 - 0.0 - Mostly clear 10 - - - -
27/11:00am 32.3 ESE 1 5 1002.9 - 0.0 - Mostly clear 10 - - - -
27/10:30am 30.9 W 2 5 1003.4 - 0.0 - Mostly clear 10 - - - -
27/10:00am 29.9 W 5 6 1003.7 - 0.0 - Mostly clear 10 - - - -
27/09:30am 28.9 W 5 7 1003.8 - 0.0 - Mostly clear 10 - - - -
27/09:00am 27.6 SW 5 7 1003.8 F 2.2 Fine Mostly cloudy 30 - - - -
27/08:30am 26.8 WSW 5 7 1004.0 - 2.2 - - 10 - - - -
27/08:00am 26.5 WSW 6 9 1003.9 - 2.2 - - 10 - - - -
27/07:30am 26.1 W 6 8 1003.8 - 2.2 - - 10 - - - -
27/07:00am 25.5 WSW 5 7 1003.7 - 2.2 - - 10 - - - -
27/06:30am 25.1 W 4 6 1003.5 - 2.2 - - 10 - - - -
27/06:00am 24.3 W 5 6 1002.9 - 2.2 - - 10 - - - -
27/05:30am 23.9 W 5 6 1003.0 - 2.2 - - 10 - - - -
27/05:00am 23.9 CALM 0 0 1003.4 - 2.2 - Mostly clear 10 - - - -
27/04:30am 24.0 S 2 5 1003.4 - 2.2 - Mostly clear 10 - - - -
27/04:00am 24.3 SW 4 6 1003.6 - 2.2 - Mostly clear 10 - - - -
27/03:30am 24.2 SW 3 5 1004.2 - 2.0 Rain Mostly clear 10 - - - -
27/03:00am 24.3 SW 5 10 1004.0 - 2.0 - Cloudy 10 - - - -
27/02:30am 24.7 SSE 5 7 1004.2 - 2.0 Rain Mostly clear 10 - - - -
27/02:00am 24.3 S 4 6 1004.4 - 2.0 Rain Mostly clear 10 - - - -
27/01:30am 24.6 NNW 2 4 1004.7 - 2.0 Rain Mostly clear 10 - - - -
27/01:00am 24.7 WSW 4 7 1004.9 - 1.6 Rain Mostly clear 10 - - - -

Other Formats:

Comma delimited format used in spreadsheet applications
http://www.bom.gov.au/fwo/IDQ60701/IDQ60701.94287.axf

JavaScript Object Notation format (JSON) in row-major order
http://www.bom.gov.au/fwo/IDQ60701/IDQ60701.94287.json